Greenbrier Valley Airport
KLWB : rendu visible

Aérodrome :











RETROUVEZ-NOUS SUR...

 
LOGIN :

S'inscrire | Disclaimer

   EN    FR    IT 

 









Légende :    VFR   VFR Marginal   IFR   IFR Intensif   IFR Très Intensif
Visi : 
Plafond : 
>= 8 km
>= 3000ft
5 à 8 km
1000 à 3000 ft
1500m à 5 km
500 à 1000 ft
800 à 1500m
200 à 500 ft
< 800m
< 200 ft
Symboles :   Orages  Brouillard  Fortes neiges  Fortes précipitations  Vent > 20 kt






- Altitude de l'aérodrome : 2302 ft


KLWB - Greenbrier Valley

DERNIER METAR :
  • 170955Z AUTO 06003KT 10SM OVC018 M01/M08 A3018 RMK AO2 T10151080

METARs EXPIRÉS :
  • 170935Z AUTO 04003KT 10SM OVC020 M02/M08 A3018 RMK AO2 T10161081
  • 170915Z AUTO 00000KT 10SM OVC020 M02/M08 A3019 RMK AO2 T10161081
  • 170855Z AUTO 03004KT 10SM OVC020 M01/M08 A3019 RMK AO2 T10151080
  • 170835Z AUTO 04003KT 10SM OVC020 M01/M08 A3019 RMK AO2 LTG DSNT SE T10151082
  • 170815Z AUTO 04004KT 10SM OVC018 M01/M08 A3019 RMK AO2 T10121082
  • 170755Z AUTO 06005KT 10SM OVC022 M01/M08 A3019 RMK AO2 T10121081
  • 170735Z AUTO 05005KT 10SM OVC022 M01/M08 A3020 RMK AO2 T10151080

TAF KLWB
Valide du 17 à 08h jusqu'au 18 à 06h UTC


170756Z 1708/1806 05005KT P6SM OVC022



MET'MAP, la Météo Aéronautique d'un coup d'oeil ! - Copyright ORBIFLY Décembre 2007 - Disclaimer

ORBIFLY MET'MAP TEAM :

Programmation & Développement : Alexandra Zaïnal
Conception & Développement : Baudouin d'Aumeries
Co-Programmation & Développement : Marc-Olivier Méhu
Soutien technique & logistique : Manuel Goepfert

Contact : metmap@orbifly.com




SOURCES & CREDITS :

   NOAA       Earth
Advisory